createdAt,value
2018-06-29T00:01:35.265Z,71.21
2018-06-29T00:04:05.370Z,70.68
2018-06-29T00:06:35.733Z,70.78
2018-06-29T00:09:07.466Z,71.08
2018-06-29T00:11:37.385Z,71.30
2018-06-29T00:14:07.292Z,71.74
2018-06-29T00:16:37.714Z,71.15
2018-06-29T00:19:07.723Z,71.41
2018-06-29T00:21:37.620Z,71.18
2018-06-29T00:24:07.489Z,71.12
2018-06-29T00:26:37.417Z,71.25
2018-06-29T00:29:07.772Z,71.17
2018-06-29T00:31:38.230Z,71.28
2018-06-29T00:34:08.623Z,71.43
2018-06-29T00:36:38.537Z,71.93
2018-06-29T00:39:09.617Z,71.95
2018-06-29T00:41:39.517Z,71.54
2018-06-29T00:44:09.777Z,72.07
2018-06-29T00:46:40.116Z,71.55
2018-06-29T00:49:09.897Z,72.06
2018-06-29T00:51:39.742Z,71.78
2018-06-29T00:54:10.269Z,72.60
2018-06-29T00:56:41.161Z,72.74
2018-06-29T00:59:11.877Z,72.50
2018-06-29T01:01:43.184Z,72.68
2018-06-29T01:04:13.883Z,72.53
2018-06-29T01:06:45.235Z,72.75
2018-06-29T01:09:15.823Z,72.33
2018-06-29T01:11:47.221Z,72.66
2018-06-29T01:14:17.862Z,72.95
2018-06-29T01:16:49.246Z,72.99
2018-06-29T01:19:19.815Z,73.19
2018-06-29T01:21:51.225Z,73.23
2018-06-29T01:24:21.900Z,73.13
2018-06-29T01:26:53.275Z,72.96
2018-06-29T01:29:23.860Z,73.18
2018-06-29T01:31:55.738Z,73.47
2018-06-29T01:34:26.207Z,73.18
2018-06-29T01:36:56.886Z,73.51
2018-06-29T01:39:28.446Z,73.17
2018-06-29T01:41:58.445Z,73.48
2018-06-29T01:44:28.948Z,73.29
2018-06-29T01:47:00.683Z,73.70
2018-06-29T01:49:31.166Z,73.54
2018-06-29T01:52:01.958Z,73.53
2018-06-29T01:54:33.323Z,73.56
2018-06-29T01:57:03.898Z,73.68
2018-06-29T01:59:35.159Z,74.18
2018-06-29T02:02:06.416Z,74.01
2018-06-29T02:04:36.966Z,74.35
2018-06-29T02:07:08.272Z,74.57
2018-06-29T02:09:38.845Z,74.52
2018-06-29T02:12:12.887Z,74.90
2018-06-29T02:14:42.693Z,75.75
2018-06-29T02:17:12.566Z,75.66
2018-06-29T02:19:43.059Z,76.20
2018-06-29T02:22:13.911Z,75.58
2018-06-29T02:24:45.196Z,75.47
2018-06-29T02:27:15.923Z,75.85
2018-06-29T02:29:47.165Z,75.87
2018-06-29T02:32:17.933Z,75.55
2018-06-29T02:34:48.790Z,76.08
2018-06-29T02:37:20.333Z,75.83
2018-06-29T02:39:50.844Z,75.94
2018-06-29T02:42:22.147Z,76.33
2018-06-29T02:44:52.884Z,76.37
2018-06-29T02:47:24.252Z,75.89
2018-06-29T02:49:54.819Z,76.11
2018-06-29T02:52:26.237Z,76.09
2018-06-29T02:54:56.854Z,76.36
2018-06-29T02:57:28.206Z,75.90
2018-06-29T02:59:58.898Z,76.24
2018-06-29T03:02:30.185Z,76.33
2018-06-29T03:05:00.922Z,75.78
2018-06-29T03:07:32.194Z,76.22
2018-06-29T03:10:02.870Z,76.06
2018-06-29T03:12:34.165Z,75.97
2018-06-29T03:15:04.946Z,76.39
2018-06-29T03:17:35.857Z,76.15
2018-06-29T03:20:07.141Z,76.25
2018-06-29T03:22:38.044Z,76.21
2018-06-29T03:25:08.861Z,76.41
2018-06-29T03:27:40.366Z,76.97
2018-06-29T03:30:10.895Z,76.66
2018-06-29T03:32:41.867Z,76.39
2018-06-29T03:35:13.219Z,77.20
2018-06-29T03:37:43.929Z,77.16
2018-06-29T03:40:15.220Z,76.99
2018-06-29T03:42:45.950Z,77.62
2018-06-29T03:45:17.230Z,77.46
2018-06-29T03:47:47.927Z,77.37
2018-06-29T03:50:19.209Z,77.82
2018-06-29T03:52:49.887Z,77.40
2018-06-29T03:55:21.145Z,77.76
2018-06-29T03:57:52.122Z,77.36
2018-06-29T04:00:22.842Z,77.96
2018-06-29T04:02:54.221Z,77.64
2018-06-29T04:05:24.845Z,77.50
2018-06-29T04:07:56.226Z,77.01
2018-06-29T04:10:26.830Z,77.49
2018-06-29T04:12:57.170Z,77.19
2018-06-29T04:15:27.931Z,77.57
2018-06-29T04:17:58.931Z,78.37
2018-06-29T04:20:30.191Z,77.50
2018-06-29T04:23:01.117Z,77.58
2018-06-29T04:25:31.878Z,77.45
2018-06-29T04:28:03.244Z,77.29
2018-06-29T04:30:33.842Z,76.82
2018-06-29T04:33:05.315Z,76.58
2018-06-29T04:35:35.806Z,76.29
2018-06-29T04:38:07.230Z,76.88
2018-06-29T04:40:37.883Z,76.39
2018-06-29T04:43:09.203Z,77.32
2018-06-29T04:45:39.897Z,76.74
2018-06-29T04:48:11.174Z,76.58
2018-06-29T04:50:41.893Z,76.33
2018-06-29T04:53:13.164Z,76.61
2018-06-29T04:55:43.845Z,76.99
2018-06-29T04:58:15.237Z,77.22
2018-06-29T05:00:45.857Z,76.89
2018-06-29T05:03:17.238Z,76.70
2018-06-29T05:05:47.837Z,76.31
2018-06-29T05:08:19.229Z,76.86
2018-06-29T05:10:49.843Z,77.29
2018-06-29T05:13:20.145Z,76.78
2018-06-29T05:15:51.165Z,76.29
2018-06-29T05:18:21.885Z,76.92
2018-06-29T05:20:53.149Z,77.51
2018-06-29T05:23:23.830Z,77.23
2018-06-29T05:25:55.262Z,77.25
2018-06-29T05:28:25.933Z,77.49
2018-06-29T05:30:56.838Z,76.76
2018-06-29T05:33:28.293Z,76.73
2018-06-29T05:35:58.852Z,76.55
2018-06-29T05:38:29.949Z,76.14
2018-06-29T05:41:01.264Z,76.58
2018-06-29T05:43:31.890Z,76.85
2018-06-29T05:46:03.257Z,76.04
2018-06-29T05:48:33.943Z,75.39
2018-06-29T05:51:05.213Z,74.59
2018-06-29T05:53:35.955Z,73.87
2018-06-29T05:56:06.900Z,73.53
2018-06-29T05:58:37.851Z,73.64
2018-06-29T06:01:12.182Z,73.36
2018-06-29T06:03:42.089Z,72.60
2018-06-29T06:06:11.885Z,72.46
2018-06-29T06:08:42.154Z,72.07
2018-06-29T06:11:11.908Z,71.73
2018-06-29T06:13:43.221Z,71.97
2018-06-29T06:16:14.138Z,71.87
2018-06-29T06:18:44.873Z,71.19
2018-06-29T06:21:16.197Z,71.16
2018-06-29T06:23:46.105Z,71.06
2018-06-29T06:26:16.885Z,70.71
2018-06-29T06:28:48.198Z,70.37
2018-06-29T06:31:18.704Z,70.37
2018-06-29T06:33:49.213Z,70.37
2018-06-29T06:36:19.918Z,70.93
2018-06-29T06:38:51.385Z,69.34
2018-06-29T06:41:21.855Z,69.27
2018-06-29T06:43:53.149Z,68.84
2018-06-29T06:46:23.969Z,69.19
2018-06-29T06:48:55.290Z,68.19
2018-06-29T06:51:25.934Z,68.32
2018-06-29T06:53:57.511Z,67.57
2018-06-29T06:56:28.173Z,67.53
2018-06-29T06:58:58.969Z,67.17
2018-06-29T07:01:30.222Z,67.40
2018-06-29T07:04:01.018Z,67.23
2018-06-29T07:06:31.829Z,65.52
2018-06-29T07:09:03.738Z,66.40
2018-06-29T07:11:34.291Z,66.32
2018-06-29T07:14:05.193Z,63.81
2018-06-29T07:16:36.046Z,65.05
2018-06-29T07:19:07.584Z,64.34
2018-06-29T07:21:38.309Z,64.61
2018-06-29T07:24:08.993Z,64.74
2018-06-29T07:26:39.165Z,64.65
2018-06-29T07:29:10.043Z,64.37
2018-06-29T07:31:40.518Z,64.89
2018-06-29T07:34:11.063Z,64.48
2018-06-29T07:36:41.921Z,64.74
2018-06-29T07:39:12.863Z,63.54
2018-06-29T07:41:44.149Z,62.77
2018-06-29T07:44:14.977Z,61.95
2018-06-29T07:46:45.937Z,62.12
2018-06-29T07:49:16.865Z,62.49
2018-06-29T07:51:48.167Z,62.51
2018-06-29T07:54:18.941Z,62.36
2018-06-29T07:56:49.845Z,60.80
2018-06-29T07:59:21.197Z,60.76
2018-06-29T08:01:52.193Z,60.43
2018-06-29T08:04:22.885Z,59.67
2018-06-29T08:06:54.233Z,58.54
2018-06-29T08:09:25.277Z,57.40
2018-06-29T08:11:55.847Z,58.36
2018-06-29T08:14:27.158Z,58.12
2018-06-29T08:16:57.876Z,56.61
2018-06-29T08:19:27.914Z,57.67
2018-06-29T08:21:58.797Z,56.80
2018-06-29T08:24:32.050Z,55.90
2018-06-29T08:27:01.834Z,56.01
2018-06-29T08:29:32.160Z,55.92
2018-06-29T08:32:03.614Z,55.38
2018-06-29T08:34:35.177Z,54.17
2018-06-29T08:37:05.371Z,52.98
2018-06-29T08:39:36.033Z,52.58
2018-06-29T08:42:06.919Z,52.39
2018-06-29T08:44:37.860Z,52.63
2018-06-29T08:47:09.245Z,52.68
2018-06-29T08:49:40.037Z,52.15
2018-06-29T08:52:10.847Z,51.54
2018-06-29T08:54:42.458Z,51.35
2018-06-29T08:57:12.987Z,51.10
2018-06-29T08:59:43.931Z,51.75
2018-06-29T09:02:14.865Z,51.22
2018-06-29T09:04:46.234Z,50.59
2018-06-29T09:07:16.935Z,50.85
2018-06-29T09:09:47.878Z,50.11
2018-06-29T09:12:19.149Z,49.68
2018-06-29T09:14:49.841Z,49.92
2018-06-29T09:17:21.133Z,48.06
2018-06-29T09:19:51.817Z,49.22
2018-06-29T09:22:23.286Z,47.81
2018-06-29T09:24:54.333Z,47.83
2018-06-29T09:27:24.150Z,49.29
2018-06-29T09:29:55.001Z,48.96
2018-06-29T09:32:25.881Z,45.65
2018-06-29T09:34:56.791Z,46.14
2018-06-29T09:37:28.597Z,45.72
2018-06-29T09:39:59.083Z,46.26
2018-06-29T09:42:29.868Z,43.62
2018-06-29T09:45:00.881Z,42.88
2018-06-29T09:47:32.114Z,42.83
2018-06-29T09:50:03.087Z,42.55
2018-06-29T09:52:33.861Z,43.30
2018-06-29T09:55:05.602Z,42.29
2018-06-29T09:57:36.022Z,42.93
2018-06-29T10:00:09.321Z,43.16
2018-06-29T10:02:39.636Z,40.32
2018-06-29T10:05:09.639Z,40.51
2018-06-29T10:07:40.314Z,40.90
2018-06-29T10:10:11.255Z,39.78
2018-06-29T10:12:41.902Z,38.51
2018-06-29T10:15:12.866Z,41.09
2018-06-29T10:17:44.147Z,39.95
2018-06-29T10:20:14.881Z,39.37
2018-06-29T10:22:45.846Z,38.48
2018-06-29T10:25:17.359Z,39.17
2018-06-29T10:27:48.085Z,40.79
2018-06-29T10:30:18.946Z,39.87
2018-06-29T10:32:49.860Z,39.54
2018-06-29T10:35:19.858Z,39.34
2018-06-29T10:37:51.234Z,37.57
2018-06-29T10:40:22.027Z,36.90
2018-06-29T10:42:52.969Z,37.97
2018-06-29T10:45:23.859Z,38.61
2018-06-29T10:47:55.075Z,37.20
2018-06-29T10:50:26.219Z,37.89
2018-06-29T10:52:57.081Z,36.62
2018-06-29T10:55:27.986Z,37.75
2018-06-29T10:57:58.909Z,38.46
2018-06-29T11:00:29.825Z,39.57
2018-06-29T11:03:01.085Z,37.81
2018-06-29T11:05:31.910Z,38.39
2018-06-29T11:08:01.909Z,38.65
2018-06-29T11:10:32.859Z,36.76
2018-06-29T11:13:04.086Z,37.17
2018-06-29T11:15:34.870Z,35.75
2018-06-29T11:18:06.216Z,36.97
2018-06-29T11:20:36.826Z,37.09
2018-06-29T11:23:08.149Z,35.51
2018-06-29T11:25:38.927Z,36.10
2018-06-29T11:28:09.867Z,33.66
2018-06-29T11:30:41.260Z,34.38
2018-06-29T11:33:12.119Z,34.49
2018-06-29T11:35:42.898Z,33.61
2018-06-29T11:38:14.152Z,34.78
2018-06-29T11:40:44.900Z,33.95
2018-06-29T11:43:16.122Z,34.33
2018-06-29T11:45:47.116Z,32.64
2018-06-29T11:48:17.833Z,33.80
2018-06-29T11:50:49.089Z,32.91
2018-06-29T11:53:19.861Z,33.41
2018-06-29T11:55:50.538Z,32.91
2018-06-29T11:58:21.189Z,32.29
2018-06-29T12:00:51.950Z,30.53
2018-06-29T12:03:22.774Z,29.85
2018-06-29T12:05:54.292Z,30.44
2018-06-29T12:08:24.077Z,30.13
2018-06-29T12:10:54.896Z,28.90
2018-06-29T12:13:25.787Z,28.12
2018-06-29T12:15:57.133Z,27.92
2018-06-29T12:18:27.814Z,28.32
2018-06-29T12:20:58.305Z,27.98
2018-06-29T12:23:28.858Z,25.97
2018-06-29T12:25:59.874Z,26.86
2018-06-29T12:28:31.308Z,25.49
2018-06-29T12:31:01.868Z,23.77
2018-06-29T12:33:33.095Z,25.44
2018-06-29T12:36:03.893Z,26.16
2018-06-29T12:38:34.807Z,24.66
2018-06-29T12:41:06.507Z,25.35
2018-06-29T12:43:37.043Z,24.57
2018-06-29T12:46:07.930Z,26.20
2018-06-29T12:48:38.818Z,26.13
2018-06-29T12:51:09.219Z,24.39
2018-06-29T12:53:39.858Z,24.94
2018-06-29T12:56:10.951Z,25.27
2018-06-29T12:58:42.167Z,25.42
2018-06-29T13:01:12.837Z,25.04
2018-06-29T13:03:44.281Z,26.86
2018-06-29T13:06:14.828Z,25.06
2018-06-29T13:08:46.093Z,24.80
2018-06-29T13:11:16.985Z,24.44
2018-06-29T13:13:47.838Z,22.83
2018-06-29T13:16:19.308Z,24.65
2018-06-29T13:18:49.809Z,23.25
2018-06-29T13:21:20.246Z,23.76
2018-06-29T13:23:50.903Z,24.35
2018-06-29T13:26:21.961Z,23.83
2018-06-29T13:28:53.010Z,22.60
2018-06-29T13:31:23.727Z,22.93
2018-06-29T13:33:54.284Z,21.66
2018-06-29T13:36:25.251Z,21.01
2018-06-29T13:38:55.762Z,21.24
2018-06-29T13:41:27.274Z,21.46
2018-06-29T13:43:57.867Z,21.29
2018-06-29T13:46:28.874Z,22.29
2018-06-29T13:49:00.161Z,22.01
2018-06-29T13:51:30.918Z,21.17
2018-06-29T13:54:01.957Z,21.00
2018-06-29T13:56:31.969Z,22.63
2018-06-29T13:59:02.956Z,22.51
2018-06-29T14:01:33.948Z,23.96
2018-06-29T14:04:04.825Z,23.12
2018-06-29T14:06:36.351Z,23.67
2018-06-29T14:09:08.194Z,25.34
2018-06-29T14:11:38.719Z,25.44
2018-06-29T14:14:08.564Z,24.80
2018-06-29T14:16:39.090Z,24.29
2018-06-29T14:19:09.979Z,25.26
2018-06-29T14:21:41.406Z,26.50
2018-06-29T14:24:11.994Z,26.37
2018-06-29T14:26:42.976Z,27.88
2018-06-29T14:29:13.875Z,26.97
2018-06-29T14:31:44.457Z,27.84
2018-06-29T14:34:15.020Z,27.35
2018-06-29T14:36:46.459Z,28.82
2018-06-29T14:39:16.973Z,29.08
2018-06-29T14:41:47.965Z,28.28
2018-06-29T14:44:19.377Z,28.51
2018-06-29T14:46:50.010Z,29.70
2018-06-29T14:49:20.950Z,29.28
2018-06-29T14:51:51.875Z,29.81
2018-06-29T14:54:22.869Z,29.46
2018-06-29T14:56:54.283Z,29.56
2018-06-29T14:59:25.352Z,29.46
2018-06-29T15:01:55.281Z,30.34
2018-06-29T15:04:26.222Z,30.11
2018-06-29T15:06:56.934Z,30.20
2018-06-29T15:09:27.939Z,30.15
2018-06-29T15:11:58.931Z,30.00
2018-06-29T15:14:29.949Z,30.16
2018-06-29T15:17:01.167Z,30.54
2018-06-29T15:19:31.961Z,30.71
2018-06-29T15:22:03.044Z,31.81
2018-06-29T15:24:33.924Z,30.59
2018-06-29T15:27:05.056Z,30.92
2018-06-29T15:29:35.964Z,31.79
2018-06-29T15:32:07.525Z,31.36
2018-06-29T15:34:38.098Z,31.78
2018-06-29T15:37:09.325Z,31.76
2018-06-29T15:39:39.999Z,31.30
2018-06-29T15:42:10.957Z,31.21
2018-06-29T15:44:41.950Z,30.82
2018-06-29T15:47:13.230Z,29.64
2018-06-29T15:49:43.188Z,29.89
2018-06-29T15:52:13.994Z,29.92
2018-06-29T15:54:43.865Z,29.66
2018-06-29T15:57:15.014Z,30.71
2018-06-29T15:59:45.943Z,29.95
2018-06-29T16:02:16.922Z,31.23
2018-06-29T16:04:46.889Z,31.57
2018-06-29T16:07:18.294Z,31.08
2018-06-29T16:09:48.525Z,31.53
2018-06-29T16:12:19.163Z,31.97
2018-06-29T16:14:49.956Z,31.94
2018-06-29T16:17:21.370Z,31.81
2018-06-29T16:19:51.964Z,31.42
2018-06-29T16:22:22.102Z,32.20
2018-06-29T16:24:52.878Z,33.74
2018-06-29T16:27:24.358Z,32.87
2018-06-29T16:29:54.998Z,32.84
2018-06-29T16:32:25.976Z,32.69
2018-06-29T16:34:56.890Z,32.19
2018-06-29T16:37:28.038Z,32.91
2018-06-29T16:39:58.986Z,33.03
2018-06-29T16:42:30.108Z,32.43
2018-06-29T16:45:00.963Z,32.50
2018-06-29T16:47:31.939Z,32.64
2018-06-29T16:50:02.984Z,33.35
2018-06-29T16:52:33.937Z,33.25
2018-06-29T16:55:05.061Z,33.33
2018-06-29T16:57:36.317Z,33.75
2018-06-29T17:00:08.246Z,33.50
2018-06-29T17:02:38.243Z,33.71
2018-06-29T17:05:09.008Z,33.22
2018-06-29T17:07:40.007Z,33.77
2018-06-29T17:10:11.013Z,33.58
2018-06-29T17:12:41.926Z,34.17
2018-06-29T17:15:12.903Z,34.05
2018-06-29T17:17:44.292Z,33.40
2018-06-29T17:20:14.951Z,34.23
2018-06-29T17:22:47.116Z,34.22
2018-06-29T17:25:17.154Z,34.65
2018-06-29T17:27:48.542Z,34.82
2018-06-29T17:30:18.483Z,34.37
2018-06-29T17:32:48.455Z,35.22
2018-06-29T17:35:19.065Z,35.05
2018-06-29T17:37:50.089Z,35.35
2018-06-29T17:40:20.905Z,35.67
2018-06-29T17:42:51.961Z,35.78
2018-06-29T17:45:22.935Z,35.21
2018-06-29T17:47:54.137Z,35.12
2018-06-29T17:50:25.313Z,35.76
2018-06-29T17:52:56.021Z,35.64
2018-06-29T17:55:27.127Z,35.45
2018-06-29T17:57:57.929Z,35.79
2018-06-29T18:00:28.953Z,35.87
2018-06-29T18:03:04.649Z,36.20
2018-06-29T18:05:34.543Z,36.32
2018-06-29T18:08:05.022Z,36.52
2018-06-29T18:10:34.813Z,36.92
2018-06-29T18:13:05.012Z,37.12
2018-06-29T18:15:35.500Z,37.34
2018-06-29T18:18:06.576Z,37.46
2018-06-29T18:20:39.068Z,36.92
2018-06-29T18:23:09.676Z,37.12
2018-06-29T18:25:40.210Z,37.18
2018-06-29T18:28:10.130Z,37.04
2018-06-29T18:30:40.074Z,37.14
2018-06-29T18:33:15.046Z,37.64
2018-06-29T18:35:45.181Z,37.44
2018-06-29T18:38:15.152Z,37.47
2018-06-29T18:40:45.718Z,38.24
2018-06-29T18:43:15.810Z,38.25
2018-06-29T18:45:45.685Z,38.28
2018-06-29T18:48:15.585Z,38.48
2018-06-29T18:50:46.270Z,39.30
2018-06-29T18:53:16.981Z,39.64
2018-06-29T18:55:47.845Z,39.88
2018-06-29T18:58:19.293Z,39.50
2018-06-29T19:00:49.933Z,40.01
2018-06-29T19:03:21.757Z,39.86
2018-06-29T19:05:53.629Z,40.58
2018-06-29T19:08:23.611Z,43.04
2018-06-29T19:10:55.454Z,43.16
2018-06-29T19:13:25.665Z,43.30
2018-06-29T19:15:56.274Z,43.81
2018-06-29T19:18:26.923Z,46.30
2018-06-29T19:20:57.938Z,48.36
2018-06-29T19:23:29.461Z,48.21
2018-06-29T19:25:59.947Z,49.66
2018-06-29T19:28:30.945Z,50.89
2018-06-29T19:31:01.873Z,51.67
2018-06-29T19:33:33.257Z,52.01
2018-06-29T19:36:03.782Z,52.05
2018-06-29T19:38:35.338Z,53.01
2018-06-29T19:41:06.129Z,53.10
2018-06-29T19:43:37.201Z,52.54
2018-06-29T19:46:08.016Z,52.56
2018-06-29T19:48:39.616Z,51.95
2018-06-29T19:51:10.966Z,52.28
2018-06-29T19:53:41.062Z,52.27
2018-06-29T19:56:11.953Z,52.40
2018-06-29T19:58:43.073Z,52.62
2018-06-29T20:01:13.993Z,52.31
2018-06-29T20:03:45.057Z,51.76
2018-06-29T20:06:15.910Z,51.68
2018-06-29T20:08:46.969Z,51.90
2018-06-29T20:11:18.348Z,52.38
2018-06-29T20:13:49.087Z,52.15
2018-06-29T20:16:19.971Z,51.75
2018-06-29T20:18:50.917Z,52.76
2018-06-29T20:21:22.267Z,52.53
2018-06-29T20:23:52.249Z,51.73
2018-06-29T20:26:22.958Z,52.70
2018-06-29T20:28:54.019Z,53.28
2018-06-29T20:31:24.846Z,52.86
2018-06-29T20:33:55.186Z,52.83
2018-06-29T20:36:26.058Z,53.63
2018-06-29T20:38:57.134Z,53.26
2018-06-29T20:41:27.982Z,54.14
2018-06-29T20:43:58.967Z,53.17
2018-06-29T20:46:29.916Z,53.67
2018-06-29T20:49:01.315Z,53.88
2018-06-29T20:51:31.965Z,53.86
2018-06-29T20:54:03.093Z,53.83
2018-06-29T20:56:33.874Z,54.24
2018-06-29T20:59:06.150Z,53.99
2018-06-29T21:01:36.055Z,54.84
2018-06-29T21:04:07.023Z,55.08
2018-06-29T21:06:37.908Z,54.78
2018-06-29T21:09:11.095Z,54.80
2018-06-29T21:11:41.637Z,54.99
2018-06-29T21:14:11.653Z,54.94
2018-06-29T21:16:43.507Z,54.61
2018-06-29T21:19:13.837Z,54.24
2018-06-29T21:21:43.650Z,55.51
2018-06-29T21:24:14.193Z,54.89
2018-06-29T21:26:44.835Z,54.47
2018-06-29T21:29:16.250Z,54.97
2018-06-29T21:31:46.721Z,55.48
2018-06-29T21:34:17.424Z,55.32
2018-06-29T21:36:48.030Z,56.40
2018-06-29T21:39:18.881Z,56.34
2018-06-29T21:41:53.233Z,55.43
2018-06-29T21:44:23.110Z,54.56
2018-06-29T21:46:52.961Z,55.91
2018-06-29T21:49:22.789Z,57.27
2018-06-29T21:51:54.249Z,57.34
2018-06-29T21:54:25.028Z,56.94
2018-06-29T21:56:55.897Z,57.01
2018-06-29T21:59:27.220Z,57.92
2018-06-29T22:01:58.018Z,57.37
2018-06-29T22:04:28.909Z,57.58
2018-06-29T22:07:00.313Z,56.72
2018-06-29T22:09:30.949Z,57.77
2018-06-29T22:12:01.950Z,57.68
2018-06-29T22:14:32.589Z,57.01
2018-06-29T22:17:03.219Z,57.69
2018-06-29T22:19:33.124Z,56.71
2018-06-29T22:22:03.898Z,56.27
2018-06-29T22:24:34.960Z,56.49
2018-06-29T22:27:06.487Z,56.21
2018-06-29T22:29:36.942Z,56.49
2018-06-29T22:32:08.545Z,56.76
2018-06-29T22:34:39.129Z,56.65
2018-06-29T22:37:10.266Z,55.83
2018-06-29T22:39:40.962Z,55.29
2018-06-29T22:42:12.262Z,55.58
2018-06-29T22:44:42.885Z,56.50
2018-06-29T22:47:14.205Z,56.72
2018-06-29T22:49:45.273Z,56.97
2018-06-29T22:52:15.909Z,57.25
2018-06-29T22:54:47.185Z,56.55
2018-06-29T22:57:17.961Z,56.49
2018-06-29T22:59:48.910Z,57.01
2018-06-29T23:02:20.295Z,56.98
2018-06-29T23:04:50.892Z,56.88
2018-06-29T23:07:22.261Z,57.11
2018-06-29T23:09:52.862Z,57.64
2018-06-29T23:12:24.272Z,56.90
2018-06-29T23:14:55.859Z,57.02
2018-06-29T23:17:26.232Z,56.91
2018-06-29T23:19:56.949Z,56.48
2018-06-29T23:22:27.931Z,56.15
2018-06-29T23:24:58.935Z,56.11
2018-06-29T23:27:29.927Z,56.30
2018-06-29T23:30:00.904Z,55.75
2018-06-29T23:32:31.878Z,55.47
2018-06-29T23:35:03.210Z,55.66
2018-06-29T23:37:33.973Z,56.76
2018-06-29T23:40:05.361Z,56.63
2018-06-29T23:42:36.084Z,56.28
2018-06-29T23:45:06.998Z,56.46
2018-06-29T23:47:37.945Z,56.12
2018-06-29T23:50:09.421Z,55.73
2018-06-29T23:52:39.922Z,55.99
2018-06-29T23:55:11.189Z,55.91
2018-06-29T23:57:41.114Z,55.77
